createdAt,value
2023-03-21T05:28:20.257Z,14.67
2023-03-21T05:30:47.747Z,16.77
2023-03-21T05:33:15.114Z,15.60
2023-03-21T05:35:42.127Z,14.97
2023-03-21T05:38:09.406Z,17.15
2023-03-21T05:40:36.519Z,15.90
2023-03-21T05:43:03.725Z,14.70
2023-03-21T05:45:31.021Z,15.93
2023-03-21T05:47:58.217Z,18.08
2023-03-21T05:50:25.550Z,26.33
2023-03-21T05:52:52.550Z,19.42
2023-03-21T05:55:19.806Z,15.82
2023-03-21T05:57:46.892Z,15.30
2023-03-21T06:00:15.056Z,14.85
2023-03-21T06:02:42.294Z,14.55
2023-03-21T06:05:09.818Z,14.93
2023-03-21T06:07:37.233Z,14.32
2023-03-21T06:10:05.840Z,14.60
2023-03-21T06:12:33.006Z,14.60
2023-03-21T06:15:01.256Z,14.18
2023-03-21T06:17:28.317Z,13.13
2023-03-21T06:19:55.748Z,13.93
2023-03-21T06:22:22.903Z,12.93
2023-03-21T06:24:50.016Z,13.30
2023-03-21T06:27:17.252Z,13.23
2023-03-21T06:29:46.218Z,13.52
2023-03-21T06:32:13.932Z,13.52
2023-03-21T06:34:41.108Z,14.23
2023-03-21T06:37:08.408Z,14.47
2023-03-21T06:39:36.058Z,15.18
2023-03-21T06:42:03.855Z,15.35
2023-03-21T06:44:31.101Z,16.70
2023-03-21T06:46:58.291Z,16.75
2023-03-21T06:49:27.499Z,17.30
2023-03-21T06:51:54.554Z,17.67
2023-03-21T06:54:21.717Z,19.15
2023-03-21T06:56:48.873Z,20.58
2023-03-21T06:59:16.160Z,20.88
2023-03-21T07:01:43.230Z,20.98
2023-03-21T07:04:11.181Z,22.85
2023-03-21T07:06:38.264Z,22.93
2023-03-21T07:09:06.591Z,23.42
2023-03-21T07:11:34.583Z,22.73
2023-03-21T07:14:01.710Z,23.90
2023-03-21T07:16:28.861Z,25.48
2023-03-21T07:18:56.651Z,24.20
2023-03-21T07:21:23.854Z,23.52
2023-03-21T07:23:50.998Z,20.83
2023-03-21T07:26:18.537Z,24.30
2023-03-21T07:28:46.075Z,24.77
2023-03-21T07:31:17.336Z,22.63
2023-03-21T07:33:44.541Z,20.83
2023-03-21T07:36:15.678Z,20.47
2023-03-21T07:38:44.569Z,20.83
2023-03-21T07:41:12.222Z,21.30
2023-03-21T07:43:39.594Z,21.73
2023-03-21T07:46:06.869Z,21.30
2023-03-21T07:48:34.415Z,21.53
2023-03-21T07:51:02.413Z,20.07
2023-03-21T07:53:29.596Z,21.20
2023-03-21T07:55:56.943Z,21.20
2023-03-21T07:58:25.067Z,20.53
2023-03-21T08:00:52.981Z,21.43
2023-03-21T08:03:20.556Z,21.10
2023-03-21T08:05:47.792Z,21.27
2023-03-21T08:08:14.806Z,20.77
2023-03-21T08:10:44.427Z,20.97
2023-03-21T08:13:13.299Z,21.57
2023-03-21T08:15:42.343Z,21.13
2023-03-21T08:18:11.296Z,19.97
2023-03-21T08:20:38.896Z,21.30
2023-03-21T08:23:06.127Z,19.33
2023-03-21T08:25:33.346Z,20.60
2023-03-21T08:28:00.902Z,20.90
2023-03-21T08:30:29.374Z,20.03
2023-03-21T08:33:01.314Z,20.10
2023-03-21T08:35:30.527Z,19.47
2023-03-21T08:37:58.102Z,18.50
2023-03-21T08:40:25.899Z,19.03
2023-03-21T08:42:53.060Z,21.35
2023-03-21T08:45:20.845Z,17.20
2023-03-21T08:47:47.821Z,17.50
2023-03-21T08:50:22.089Z,17.60
2023-03-21T08:52:49.716Z,17.90
2023-03-21T08:55:19.113Z,16.43
2023-03-21T08:57:46.661Z,17.20
2023-03-21T09:00:20.830Z,17.63
2023-03-21T09:02:51.478Z,17.27
2023-03-21T09:05:19.704Z,16.93
2023-03-21T09:07:47.260Z,16.37
2023-03-21T09:10:22.810Z,16.57
2023-03-21T09:12:53.815Z,18.07
2023-03-21T09:15:24.646Z,18.60
2023-03-21T09:17:54.416Z,17.57
2023-03-21T09:20:30.746Z,18.13
2023-03-21T09:22:59.260Z,17.43
2023-03-21T09:25:31.750Z,17.27
2023-03-21T09:28:00.967Z,18.27
2023-03-21T09:30:29.536Z,17.00
2023-03-21T09:32:57.028Z,17.27
2023-03-21T09:35:24.981Z,17.60
2023-03-21T09:37:52.614Z,18.40
2023-03-21T09:41:05.977Z,19.42
2023-03-21T09:43:42.696Z,18.23
2023-03-21T09:46:37.141Z,17.38
2023-03-21T09:49:41.584Z,18.43
2023-03-21T09:52:29.038Z,17.58
2023-03-21T09:54:56.533Z,18.42
2023-03-21T09:57:40.069Z,19.73
2023-03-21T10:00:25.826Z,18.73
2023-03-21T10:02:59.837Z,18.30
2023-03-21T10:05:30.572Z,18.92
2023-03-21T10:08:09.955Z,18.40
2023-03-21T10:11:01.370Z,18.90
2023-03-21T10:13:33.393Z,19.00
2023-03-21T10:16:17.406Z,17.77
2023-03-21T10:18:45.105Z,17.87
2023-03-21T10:21:56.642Z,16.48
2023-03-21T10:24:22.842Z,17.05
2023-03-21T10:26:51.887Z,17.40
2023-03-21T10:29:24.452Z,17.10
2023-03-21T10:31:53.110Z,16.30
2023-03-21T10:34:43.063Z,16.48
2023-03-21T10:37:13.195Z,15.50
2023-03-21T10:39:47.184Z,15.52
2023-03-21T10:42:24.845Z,16.25
2023-03-21T10:44:55.145Z,15.90
2023-03-21T10:47:31.773Z,16.27
2023-03-21T10:52:34.606Z,16.57
2023-03-21T10:55:24.572Z,15.57
2023-03-21T10:58:19.031Z,16.58
2023-03-21T11:00:48.204Z,16.83
2023-03-21T11:03:33.949Z,17.15
2023-03-21T11:06:22.574Z,15.77
2023-03-21T11:08:56.124Z,16.05
2023-03-21T11:11:33.103Z,16.88
2023-03-21T11:14:07.149Z,16.27
2023-03-21T11:16:40.812Z,16.40
2023-03-21T11:19:27.800Z,16.25
2023-03-21T11:22:07.627Z,16.58
2023-03-21T11:24:36.192Z,16.63
2023-03-21T11:27:08.103Z,16.25
2023-03-21T11:29:41.261Z,17.98
2023-03-21T11:32:32.878Z,18.08
2023-03-21T11:35:21.584Z,16.58
2023-03-21T11:37:55.577Z,17.00
2023-03-21T11:40:36.827Z,16.98
2023-03-21T11:43:18.149Z,16.48
2023-03-21T11:46:11.085Z,15.68
2023-03-21T11:48:51.509Z,15.57
2023-03-21T11:51:30.116Z,15.23
2023-03-21T11:54:10.912Z,15.40
2023-03-21T11:57:08.228Z,16.73
2023-03-21T11:59:37.977Z,16.42
2023-03-21T12:03:07.993Z,16.65
2023-03-21T12:05:44.822Z,16.58
2023-03-21T12:08:40.707Z,17.00
2023-03-21T12:11:16.332Z,18.67
2023-03-21T12:14:10.761Z,19.70
2023-03-21T12:17:00.891Z,20.85
2023-03-21T12:19:46.305Z,22.63
2023-03-21T12:22:24.836Z,21.88
2023-03-21T12:24:57.541Z,22.00
2023-03-21T12:27:48.912Z,20.77
2023-03-21T12:30:28.262Z,21.17
2023-03-21T12:33:38.557Z,21.33
2023-03-21T12:36:38.678Z,22.10
2023-03-21T12:39:37.933Z,22.63
2023-03-21T12:42:34.494Z,20.42
2023-03-21T12:45:29.519Z,21.02
2023-03-21T12:48:27.899Z,19.10
2023-03-21T12:50:57.237Z,18.37
2023-03-21T12:54:01.226Z,16.33
2023-03-21T12:57:02.321Z,15.80
2023-03-21T12:59:57.040Z,14.27
2023-03-21T13:02:41.385Z,14.23
2023-03-21T13:05:28.119Z,13.15
2023-03-21T13:08:18.466Z,12.75
2023-03-21T13:10:47.158Z,12.50
2023-03-21T13:13:27.360Z,11.82
2023-03-21T13:16:07.360Z,11.70
2023-03-21T13:18:44.600Z,11.63
2023-03-21T13:21:33.816Z,11.07
2023-03-21T13:24:18.878Z,10.80
2023-03-21T13:26:55.809Z,10.47
2023-03-21T13:29:27.687Z,10.13
2023-03-21T13:32:08.812Z,9.75
2023-03-21T13:34:38.568Z,9.90
2023-03-21T13:37:06.053Z,9.50
2023-03-21T13:39:33.249Z,9.50
2023-03-21T13:42:06.692Z,8.25
2023-03-21T13:44:44.591Z,7.70
2023-03-21T13:47:49.705Z,7.73
2023-03-21T13:50:25.846Z,8.45
2023-03-21T13:53:15.949Z,6.15
2023-03-21T13:55:58.734Z,6.28
2023-03-21T13:58:50.420Z,6.00
2023-03-21T14:01:32.560Z,6.35
2023-03-21T14:04:16.036Z,6.47
2023-03-21T14:07:25.254Z,6.63
2023-03-21T14:10:30.267Z,6.63
2023-03-21T14:12:58.800Z,6.97
2023-03-21T14:16:01.012Z,6.63
2023-03-21T14:18:52.481Z,7.05
2023-03-21T14:21:30.402Z,7.00
2023-03-21T14:24:19.239Z,6.90
2023-03-21T14:26:51.018Z,7.25
2023-03-21T14:29:27.393Z,7.25
2023-03-21T14:31:56.655Z,7.30
2023-03-21T14:34:26.197Z,6.75
2023-03-21T14:36:58.057Z,7.10
2023-03-21T14:39:32.808Z,7.20
2023-03-21T14:42:11.244Z,6.80
2023-03-21T14:45:20.940Z,7.13
2023-03-21T14:48:16.423Z,7.03
2023-03-21T14:50:52.108Z,7.00
2023-03-21T14:53:36.406Z,6.70
2023-03-21T14:56:16.881Z,6.38
2023-03-21T14:58:47.630Z,6.47
2023-03-21T15:01:25.932Z,7.00
2023-03-21T15:03:53.124Z,7.22
2023-03-21T15:06:20.547Z,6.97
2023-03-21T15:09:01.235Z,7.10
2023-03-21T15:11:38.622Z,6.50
2023-03-21T15:14:13.346Z,6.65
2023-03-21T15:16:40.865Z,6.40
2023-03-21T15:19:14.333Z,6.40
2023-03-21T15:21:48.480Z,6.65
2023-03-21T15:24:34.195Z,5.78
2023-03-21T15:27:06.091Z,5.10
2023-03-21T15:29:37.061Z,5.32
2023-03-21T15:32:07.253Z,5.45
2023-03-21T15:34:34.523Z,5.90
2023-03-21T15:37:07.899Z,5.40
2023-03-21T15:39:36.470Z,6.43
2023-03-21T15:42:23.292Z,6.65
2023-03-21T15:44:56.533Z,6.25
2023-03-21T15:47:50.551Z,6.50
2023-03-21T15:50:38.603Z,6.65
2023-03-21T15:53:17.494Z,6.13
2023-03-21T15:55:52.275Z,6.70
2023-03-21T15:58:48.922Z,6.25
2023-03-21T16:01:20.239Z,5.60
2023-03-21T16:03:56.497Z,5.97
2023-03-21T16:06:33.731Z,6.13
2023-03-21T16:09:14.307Z,6.22
2023-03-21T16:11:53.274Z,6.78
2023-03-21T16:14:22.557Z,6.20
2023-03-21T16:16:51.024Z,6.45
2023-03-21T16:19:18.636Z,6.80
2023-03-21T16:21:46.965Z,6.00
2023-03-21T16:24:14.194Z,6.40
2023-03-21T16:26:50.694Z,7.10
2023-03-21T16:29:19.461Z,7.13
2023-03-21T16:31:49.348Z,8.32
2023-03-21T16:34:16.600Z,7.10
2023-03-21T16:36:44.175Z,7.22
2023-03-21T16:39:21.408Z,7.25
2023-03-21T16:41:50.655Z,6.82
2023-03-21T16:44:18.808Z,7.03
2023-03-21T16:46:47.310Z,6.75
2023-03-21T16:49:26.918Z,7.32
2023-03-21T16:51:56.390Z,7.28
2023-03-21T16:54:24.213Z,7.57
2023-03-21T16:56:54.888Z,9.10
2023-03-21T16:59:22.687Z,6.60
2023-03-21T17:01:50.567Z,7.78
2023-03-21T17:04:19.480Z,8.27
2023-03-21T17:06:50.280Z,7.57
2023-03-21T17:09:21.868Z,7.35
2023-03-21T17:11:49.653Z,7.35
2023-03-21T17:14:21.624Z,8.00
2023-03-21T17:16:48.955Z,9.02
2023-03-21T17:19:24.095Z,8.18
2023-03-21T17:21:51.183Z,7.70
2023-03-21T17:24:18.185Z,8.40
2023-03-21T17:26:45.691Z,8.10
2023-03-21T17:29:16.432Z,7.38
2023-03-21T17:31:47.401Z,7.73
2023-03-21T17:34:15.672Z,8.48
2023-03-21T17:36:44.683Z,9.13
2023-03-21T17:39:24.229Z,7.10
2023-03-21T17:41:53.006Z,9.15
2023-03-21T17:44:21.060Z,9.63
2023-03-21T17:46:50.418Z,7.30
2023-03-21T17:49:19.181Z,7.40
2023-03-21T17:51:47.122Z,8.73
2023-03-21T17:54:14.287Z,8.50
2023-03-21T17:56:42.211Z,9.55
2023-03-21T17:59:13.715Z,7.78
2023-03-21T18:01:41.568Z,7.30
2023-03-21T18:04:09.135Z,8.02
2023-03-21T18:06:37.601Z,8.93
2023-03-21T18:09:12.107Z,8.60
2023-03-21T18:11:40.450Z,9.13
2023-03-21T18:14:16.561Z,9.05
2023-03-21T18:16:46.066Z,10.02
2023-03-21T18:19:14.614Z,8.50
2023-03-21T18:21:45.482Z,8.63
2023-03-21T18:24:13.838Z,8.85
2023-03-21T18:26:41.792Z,8.95
2023-03-21T18:30:13.084Z,9.00
2023-03-21T18:32:07.020Z,9.93
2023-03-21T18:34:37.564Z,8.68
2023-03-21T18:37:07.991Z,8.03
2023-03-21T18:39:37.045Z,8.57
2023-03-21T18:42:05.602Z,8.40
2023-03-21T18:44:37.439Z,8.57
2023-03-21T18:47:06.626Z,8.38
2023-03-21T18:52:21.420Z,8.82
2023-03-21T18:54:49.038Z,8.07
2023-03-21T18:57:35.678Z,9.90
2023-03-21T19:00:13.164Z,12.55
2023-03-21T19:02:47.049Z,16.17
2023-03-21T19:05:19.549Z,15.48
2023-03-21T19:07:48.189Z,17.98
2023-03-21T19:10:19.932Z,10.45
2023-03-21T19:12:53.098Z,9.57
2023-03-21T19:15:21.909Z,9.32
2023-03-21T19:18:33.992Z,9.43
2023-03-21T19:20:44.590Z,9.80
2023-03-21T19:23:11.987Z,10.13
2023-03-21T19:25:39.161Z,10.40
2023-03-21T19:28:06.569Z,10.32
2023-03-21T19:30:34.199Z,10.38
2023-03-21T19:33:01.707Z,17.30
2023-03-21T19:35:29.021Z,11.00
2023-03-21T19:37:56.265Z,12.07
2023-03-21T19:40:23.995Z,11.57
2023-03-21T19:42:51.301Z,12.45
2023-03-21T19:45:18.397Z,15.85
2023-03-21T19:47:46.267Z,20.10
2023-03-21T19:50:47.375Z,28.35
2023-03-21T19:53:00.501Z,12.93
2023-03-21T19:55:27.607Z,31.52
2023-03-21T19:57:54.935Z,25.95
2023-03-21T20:00:22.512Z,13.13
2023-03-21T20:02:49.704Z,40.78
2023-03-21T20:05:22.043Z,16.40
2023-03-21T20:07:49.230Z,39.08
2023-03-21T20:10:16.755Z,15.35
2023-03-21T20:12:43.757Z,15.03
2023-03-21T20:15:17.553Z,13.85
2023-03-21T20:17:51.735Z,15.75
2023-03-21T20:20:19.517Z,19.90
2023-03-21T20:25:42.268Z,25.73
2023-03-21T20:28:16.402Z,17.73
2023-03-21T20:30:54.146Z,31.17
2023-03-21T20:33:21.693Z,16.15
2023-03-21T20:38:37.543Z,18.83
2023-03-21T20:41:06.852Z,31.02
2023-03-21T20:44:24.469Z,25.48
2023-03-21T20:46:28.420Z,18.60
2023-03-21T20:48:55.622Z,23.60
2023-03-21T20:54:11.251Z,18.50
2023-03-21T20:56:38.965Z,19.63
2023-03-21T20:59:17.673Z,19.98
2023-03-21T21:01:48.376Z,19.88
2023-03-21T21:04:19.985Z,19.40
2023-03-21T21:06:48.664Z,19.67
2023-03-21T21:09:16.928Z,19.67
2023-03-21T21:14:31.381Z,21.40
2023-03-21T21:17:02.598Z,20.70
2023-03-21T21:19:32.297Z,18.90
2023-03-21T21:21:59.265Z,19.83
2023-03-21T21:24:26.288Z,18.75
2023-03-21T21:26:53.761Z,18.45
2023-03-21T21:29:20.792Z,17.77
2023-03-21T21:31:50.771Z,18.77
2023-03-21T21:34:19.910Z,17.40
2023-03-21T21:36:47.493Z,16.90
2023-03-21T21:39:17.464Z,16.88
2023-03-21T21:41:44.522Z,17.15
2023-03-21T21:44:11.668Z,16.60
2023-03-21T21:46:39.128Z,16.27
2023-03-21T21:49:06.751Z,16.90
2023-03-21T21:51:34.172Z,16.43
2023-03-21T21:54:03.748Z,16.90
2023-03-21T21:56:38.478Z,17.52
2023-03-21T21:59:05.780Z,17.98
2023-03-21T22:01:38.690Z,18.70
2023-03-21T22:04:10.916Z,18.52
2023-03-21T22:06:38.075Z,18.30
2023-03-21T22:09:06.986Z,18.65
2023-03-21T22:11:34.200Z,19.02
2023-03-21T22:14:01.287Z,19.23
2023-03-21T22:16:28.509Z,19.35
2023-03-21T22:18:55.853Z,19.65
2023-03-21T22:21:23.038Z,24.48
2023-03-21T22:23:50.399Z,24.60
2023-03-21T22:26:17.578Z,22.40
2023-03-21T22:28:44.661Z,20.20
2023-03-21T22:31:15.875Z,19.05
2023-03-21T22:33:44.042Z,20.00
2023-03-21T22:36:11.643Z,20.30
2023-03-21T22:38:38.850Z,19.83
2023-03-21T22:41:06.726Z,19.02
2023-03-21T22:43:35.328Z,18.23
2023-03-21T22:46:04.751Z,18.40
2023-03-21T22:48:32.487Z,19.48
2023-03-21T22:53:34.228Z,18.07
2023-03-21T22:56:01.325Z,17.83
2023-03-21T22:58:28.286Z,17.48
2023-03-21T23:01:02.126Z,17.25
2023-03-21T23:03:29.248Z,16.92
2023-03-21T23:06:01.376Z,17.42
2023-03-21T23:08:28.804Z,16.55
2023-03-21T23:10:56.309Z,17.05
2023-03-21T23:13:23.842Z,17.60
2023-03-21T23:15:51.283Z,16.75
2023-03-21T23:18:18.408Z,17.67
2023-03-21T23:20:49.570Z,18.60
2023-03-21T23:23:16.790Z,18.20
2023-03-21T23:25:43.774Z,18.33
2023-03-21T23:28:10.969Z,19.42
2023-03-21T23:30:39.238Z,19.08
2023-03-21T23:33:06.431Z,19.95
2023-03-21T23:35:36.094Z,17.73
2023-03-21T23:38:03.127Z,18.20
2023-03-21T23:40:30.924Z,17.83
2023-03-21T23:42:59.716Z,18.23
2023-03-21T23:45:27.005Z,19.13
2023-03-21T23:47:53.986Z,19.30
2023-03-21T23:50:21.048Z,20.45
2023-03-21T23:52:48.136Z,19.40
2023-03-21T23:55:15.314Z,18.15
2023-03-21T23:57:43.891Z,18.27
